createdAt,value
2023-04-04T00:00:44.065Z,1.70
2023-04-04T00:03:13.929Z,1.60
2023-04-04T00:05:42.016Z,1.65
2023-04-04T00:08:10.246Z,2.17
2023-04-04T00:10:38.633Z,1.73
2023-04-04T00:13:07.806Z,1.65
2023-04-04T00:15:36.525Z,2.22
2023-04-04T00:18:05.071Z,1.83
2023-04-04T00:20:34.522Z,1.60
2023-04-04T00:23:02.824Z,1.60
2023-04-04T00:25:30.835Z,1.50
2023-04-04T00:28:01.251Z,1.77
2023-04-04T00:30:29.779Z,2.15
2023-04-04T00:32:58.205Z,1.90
2023-04-04T00:35:26.712Z,1.60
2023-04-04T00:37:56.280Z,1.80
2023-04-04T00:40:24.484Z,1.70
2023-04-04T00:42:52.998Z,1.88
2023-04-04T00:45:21.701Z,1.73
2023-04-04T00:47:51.423Z,2.00
2023-04-04T00:50:19.873Z,1.70
2023-04-04T00:52:48.203Z,1.90
2023-04-04T00:55:17.986Z,1.88
2023-04-04T00:57:47.087Z,1.70
2023-04-04T01:00:16.818Z,1.52
2023-04-04T01:02:45.154Z,2.10
2023-04-04T01:05:13.511Z,2.10
2023-04-04T01:07:42.768Z,2.05
2023-04-04T01:10:12.938Z,1.73
2023-04-04T01:12:43.591Z,1.95
2023-04-04T01:15:12.470Z,1.80
2023-04-04T01:17:41.879Z,1.52
2023-04-04T01:20:16.021Z,1.60
2023-04-04T01:22:50.572Z,2.28
2023-04-04T01:25:20.273Z,2.10
2023-04-04T01:27:57.406Z,2.30
2023-04-04T01:30:28.867Z,1.90
2023-04-04T01:33:02.548Z,1.98
2023-04-04T01:35:36.981Z,2.22
2023-04-04T01:38:15.505Z,2.03
2023-04-04T01:40:49.792Z,2.20
2023-04-04T01:43:20.170Z,2.50
2023-04-04T01:45:50.749Z,2.00
2023-04-04T01:48:19.823Z,2.08
2023-04-04T01:50:52.534Z,1.80
2023-04-04T01:53:21.992Z,2.00
2023-04-04T01:55:50.085Z,2.30
2023-04-04T01:58:20.191Z,2.20
2023-04-04T02:00:48.319Z,2.35
2023-04-04T02:03:16.823Z,2.03
2023-04-04T02:05:44.856Z,1.85
2023-04-04T02:08:13.414Z,2.17
2023-04-04T02:10:49.267Z,2.13
2023-04-04T02:13:20.080Z,2.03
2023-04-04T02:15:50.150Z,2.00
2023-04-04T02:18:18.496Z,1.80
2023-04-04T02:20:46.745Z,1.92
2023-04-04T02:23:14.806Z,1.70
2023-04-04T02:25:43.091Z,1.85
2023-04-04T02:28:11.479Z,1.98
2023-04-04T02:30:41.301Z,1.90
2023-04-04T02:33:09.631Z,2.40
2023-04-04T02:35:38.195Z,1.90
2023-04-04T02:38:07.565Z,2.17
2023-04-04T02:40:43.294Z,2.17
2023-04-04T02:43:11.605Z,1.83
2023-04-04T02:45:41.673Z,1.83
2023-04-04T02:48:21.062Z,1.60
2023-04-04T02:50:51.775Z,1.75
2023-04-04T02:53:20.046Z,1.70
2023-04-04T02:55:52.524Z,2.15
2023-04-04T02:58:20.736Z,1.90
2023-04-04T03:00:56.644Z,2.08
2023-04-04T03:03:29.458Z,1.50
2023-04-04T03:05:59.318Z,1.83
2023-04-04T03:08:28.248Z,1.80
2023-04-04T03:10:59.570Z,1.80
2023-04-04T03:13:27.904Z,2.33
2023-04-04T03:16:02.846Z,2.22
2023-04-04T03:18:35.647Z,1.75
2023-04-04T03:21:04.761Z,2.13
2023-04-04T03:23:32.801Z,1.60
2023-04-04T03:26:00.842Z,1.80
2023-04-04T03:28:29.402Z,1.83
2023-04-04T03:30:57.663Z,2.25
2023-04-04T03:33:27.525Z,2.45
2023-04-04T03:35:55.620Z,2.08
2023-04-04T03:38:23.890Z,2.00
2023-04-04T03:40:52.178Z,1.83
2023-04-04T03:43:20.463Z,2.00
2023-04-04T03:45:49.262Z,2.25
2023-04-04T03:48:17.875Z,1.40
2023-04-04T03:50:47.349Z,2.15
2023-04-04T03:53:16.764Z,2.00
2023-04-04T03:55:45.080Z,2.08
2023-04-04T03:58:13.404Z,2.33
2023-04-04T04:00:41.785Z,1.88
2023-04-04T04:03:10.314Z,2.10
2023-04-04T04:05:38.490Z,2.25
2023-04-04T04:08:12.576Z,2.03
2023-04-04T04:10:40.861Z,2.17
2023-04-04T04:13:09.259Z,2.17
2023-04-04T04:15:38.735Z,2.40
2023-04-04T04:18:11.105Z,2.22
2023-04-04T04:20:39.368Z,2.10
2023-04-04T04:23:09.178Z,2.20
2023-04-04T04:25:37.246Z,2.05
2023-04-04T04:28:14.216Z,2.10
2023-04-04T04:30:42.777Z,1.83
2023-04-04T04:33:11.627Z,2.10
2023-04-04T04:35:48.719Z,2.10
2023-04-04T04:38:18.511Z,2.03
2023-04-04T04:40:46.728Z,2.30
2023-04-04T04:43:21.115Z,2.00
2023-04-04T04:45:51.355Z,2.33
2023-04-04T04:48:20.337Z,2.38
2023-04-04T04:50:53.077Z,2.22
2023-04-04T04:53:34.656Z,2.50
2023-04-04T04:56:03.747Z,1.83
2023-04-04T04:58:33.213Z,2.00
2023-04-04T05:01:03.441Z,2.10
2023-04-04T05:03:39.560Z,2.28
2023-04-04T05:06:10.681Z,2.38
2023-04-04T05:08:40.975Z,1.92
2023-04-04T05:11:24.341Z,2.20
2023-04-04T05:13:53.462Z,1.92
2023-04-04T05:16:22.783Z,2.25
2023-04-04T05:18:52.552Z,2.22
2023-04-04T05:21:20.792Z,2.40
2023-04-04T05:23:51.940Z,2.38
2023-04-04T05:26:21.759Z,2.20
2023-04-04T05:28:52.799Z,2.08
2023-04-04T05:31:21.806Z,1.85
2023-04-04T05:33:54.204Z,2.17
2023-04-04T05:36:30.310Z,2.20
2023-04-04T05:39:05.811Z,1.90
2023-04-04T05:41:37.638Z,1.85
2023-04-04T05:44:13.365Z,1.85
2023-04-04T05:46:41.635Z,1.70
2023-04-04T05:49:09.767Z,2.17
2023-04-04T05:51:42.104Z,1.90
2023-04-04T05:54:14.712Z,2.17
2023-04-04T05:56:44.231Z,2.10
2023-04-04T05:59:24.047Z,1.98
2023-04-04T06:01:57.634Z,2.03
2023-04-04T06:04:26.381Z,1.90
2023-04-04T06:06:56.700Z,2.20
2023-04-04T06:09:26.420Z,2.10
2023-04-04T06:11:54.798Z,1.88
2023-04-04T06:14:23.645Z,2.40
2023-04-04T06:16:52.677Z,2.38
2023-04-04T06:19:21.773Z,2.20
2023-04-04T06:21:50.377Z,1.88
2023-04-04T06:24:18.429Z,2.10
2023-04-04T06:26:51.678Z,2.42
2023-04-04T06:29:22.902Z,2.30
2023-04-04T06:31:54.444Z,2.80
2023-04-04T06:34:34.208Z,3.03
2023-04-04T06:37:03.685Z,2.20
2023-04-04T06:39:38.061Z,2.03
2023-04-04T06:42:14.378Z,2.00
2023-04-04T06:44:48.454Z,2.22
2023-04-04T06:47:16.772Z,2.13
2023-04-04T06:49:44.825Z,2.25
2023-04-04T06:52:13.873Z,1.95
2023-04-04T06:54:42.501Z,1.98
2023-04-04T06:57:12.075Z,1.85
2023-04-04T06:59:40.084Z,1.98
2023-04-04T07:02:08.425Z,1.90
2023-04-04T07:04:38.031Z,2.08
2023-04-04T07:07:06.297Z,1.92
2023-04-04T07:09:34.335Z,1.98
2023-04-04T07:12:02.752Z,2.08
2023-04-04T07:14:32.349Z,1.80
2023-04-04T07:19:29.049Z,2.17
2023-04-04T07:21:57.600Z,1.80
2023-04-04T07:24:25.750Z,1.65
2023-04-04T07:26:54.090Z,2.25
2023-04-04T07:29:24.081Z,2.03
2023-04-04T07:31:53.807Z,1.95
2023-04-04T07:34:21.882Z,2.17
2023-04-04T07:36:50.228Z,1.92
2023-04-04T07:39:18.330Z,1.95
2023-04-04T07:41:48.635Z,1.70
2023-04-04T07:44:16.681Z,2.20
2023-04-04T07:46:47.806Z,1.88
2023-04-04T07:49:19.471Z,1.97
2023-04-04T07:51:49.126Z,1.85
2023-04-04T07:54:17.168Z,2.20
2023-04-04T07:56:46.225Z,2.10
2023-04-04T07:59:14.603Z,1.90
2023-04-04T08:01:44.624Z,1.70
2023-04-04T08:04:14.185Z,2.25
2023-04-04T08:06:43.712Z,1.90
2023-04-04T08:09:12.155Z,1.67
2023-04-04T08:11:40.336Z,2.05
2023-04-04T08:14:12.002Z,1.60
2023-04-04T08:16:40.219Z,1.85
2023-04-04T08:19:08.906Z,2.08
2023-04-04T08:21:36.954Z,1.85
2023-04-04T08:24:07.926Z,1.83
2023-04-04T08:26:36.014Z,1.92
2023-04-04T08:29:04.528Z,1.60
2023-04-04T08:31:34.224Z,2.33
2023-04-04T08:34:02.617Z,2.25
2023-04-04T08:36:30.695Z,2.00
2023-04-04T08:38:59.031Z,1.45
2023-04-04T08:41:29.161Z,1.80
2023-04-04T08:44:02.880Z,1.95
2023-04-04T08:46:31.589Z,1.95
2023-04-04T08:49:01.011Z,1.77
2023-04-04T08:51:31.824Z,1.50
2023-04-04T08:54:02.266Z,1.73
2023-04-04T08:56:31.768Z,1.80
2023-04-04T08:59:01.526Z,1.80
2023-04-04T09:01:30.162Z,1.80
2023-04-04T09:03:58.993Z,1.65
2023-04-04T09:06:28.063Z,1.45
2023-04-04T09:09:14.894Z,1.40
2023-04-04T09:11:46.768Z,1.38
2023-04-04T09:14:15.188Z,1.95
2023-04-04T09:16:43.264Z,1.80
2023-04-04T09:19:11.555Z,1.80
2023-04-04T09:21:39.587Z,1.45
2023-04-04T09:24:08.512Z,1.70
2023-04-04T09:26:49.577Z,1.40
2023-04-04T09:29:19.292Z,1.88
2023-04-04T09:31:49.290Z,1.70
2023-04-04T09:34:19.989Z,1.60
2023-04-04T09:36:48.880Z,1.92
2023-04-04T09:39:17.587Z,1.83
2023-04-04T09:41:46.453Z,1.65
2023-04-04T09:44:18.243Z,1.90
2023-04-04T09:46:46.288Z,1.40
2023-04-04T09:49:21.460Z,1.77
2023-04-04T09:51:51.058Z,1.70
2023-04-04T09:54:29.402Z,1.80
2023-04-04T09:56:58.568Z,2.22
2023-04-04T09:59:28.128Z,1.90
2023-04-04T10:01:56.413Z,1.48
2023-04-04T10:04:27.250Z,1.58
2023-04-04T10:06:55.837Z,1.67
2023-04-04T10:09:25.982Z,1.63
2023-04-04T10:12:09.835Z,2.03
2023-04-04T10:14:39.332Z,1.60
2023-04-04T10:17:11.675Z,1.50
2023-04-04T10:19:40.463Z,1.40
2023-04-04T10:22:09.999Z,1.80
2023-04-04T10:24:38.104Z,1.60
2023-04-04T10:27:06.484Z,1.52
2023-04-04T10:29:34.810Z,1.60
2023-04-04T10:32:08.791Z,1.60
2023-04-04T10:34:42.218Z,1.80
2023-04-04T10:37:14.691Z,1.70
2023-04-04T10:39:51.538Z,1.65
2023-04-04T10:42:20.795Z,1.45
2023-04-04T10:44:49.103Z,1.67
2023-04-04T10:47:22.575Z,1.60
2023-04-04T10:52:26.387Z,1.17
2023-04-04T10:54:58.320Z,1.40
2023-04-04T10:57:28.387Z,1.20
2023-04-04T11:00:01.696Z,1.55
2023-04-04T11:02:55.748Z,1.40
2023-04-04T11:05:26.653Z,1.20
2023-04-04T11:10:31.884Z,1.50
2023-04-04T11:13:12.691Z,1.67
2023-04-04T11:15:53.130Z,1.63
2023-04-04T11:18:33.286Z,1.50
2023-04-04T11:21:03.745Z,1.20
2023-04-04T11:24:16.806Z,1.45
2023-04-04T11:26:47.142Z,1.77
2023-04-04T11:29:26.410Z,1.38
2023-04-04T11:31:54.648Z,1.77
2023-04-04T11:34:34.312Z,1.30
2023-04-04T11:37:17.575Z,1.42
2023-04-04T11:42:21.902Z,1.25
2023-04-04T11:45:07.757Z,1.67
2023-04-04T11:47:35.966Z,1.42
2023-04-04T11:50:11.147Z,1.40
2023-04-04T11:52:39.434Z,1.10
2023-04-04T11:55:16.908Z,1.30
2023-04-04T11:57:44.988Z,1.13
2023-04-04T12:00:28.963Z,1.35
2023-04-04T12:02:57.415Z,1.73
2023-04-04T12:05:28.110Z,1.38
2023-04-04T12:07:56.546Z,1.50
2023-04-04T12:13:31.707Z,1.20
2023-04-04T12:15:59.798Z,1.50
2023-04-04T12:18:28.952Z,1.33
2023-04-04T12:20:58.294Z,1.17
2023-04-04T12:23:27.610Z,1.40
2023-04-04T12:25:57.685Z,1.63
2023-04-04T12:28:27.271Z,1.10
2023-04-04T12:30:56.940Z,1.38
2023-04-04T12:33:26.493Z,1.45
2023-04-04T12:35:55.946Z,1.42
2023-04-04T12:38:25.884Z,1.38
2023-04-04T12:40:54.247Z,1.30
2023-04-04T12:43:22.522Z,1.17
2023-04-04T12:45:52.232Z,1.30
2023-04-04T12:48:22.684Z,1.25
2023-04-04T12:50:53.175Z,1.52
2023-04-04T12:53:28.435Z,1.50
2023-04-04T12:56:12.122Z,1.10
2023-04-04T12:58:40.281Z,1.40
2023-04-04T13:01:08.532Z,1.20
2023-04-04T13:03:37.980Z,1.30
2023-04-04T13:06:13.147Z,1.80
2023-04-04T13:08:51.799Z,1.85
2023-04-04T13:11:21.911Z,1.92
2023-04-04T13:14:00.575Z,1.70
2023-04-04T13:16:33.699Z,1.35
2023-04-04T13:19:02.293Z,1.55
2023-04-04T13:21:30.870Z,1.38
2023-04-04T13:23:59.398Z,1.30
2023-04-04T13:26:28.952Z,1.50
2023-04-04T13:28:57.104Z,1.20
2023-04-04T13:31:25.425Z,1.40
2023-04-04T13:33:53.414Z,1.30
2023-04-04T13:36:21.687Z,1.50
2023-04-04T13:38:49.724Z,1.65
2023-04-04T13:41:18.266Z,1.30
2023-04-04T13:43:47.652Z,1.33
2023-04-04T13:46:16.511Z,1.30
2023-04-04T13:48:44.838Z,1.20
2023-04-04T13:51:12.863Z,1.50
2023-04-04T13:53:41.581Z,1.30
2023-04-04T13:58:41.030Z,1.50
2023-04-04T14:01:10.646Z,1.60
2023-04-04T14:03:38.766Z,1.92
2023-04-04T14:06:10.917Z,1.80
2023-04-04T14:08:39.896Z,1.63
2023-04-04T14:11:08.283Z,1.70
2023-04-04T14:13:37.156Z,1.80
2023-04-04T14:16:05.508Z,1.80
2023-04-04T14:18:35.483Z,1.40
2023-04-04T14:21:03.963Z,1.48
2023-04-04T14:23:32.041Z,1.50
2023-04-04T14:26:00.024Z,1.70
2023-04-04T14:28:28.573Z,1.50
2023-04-04T14:30:56.934Z,1.60
2023-04-04T14:33:25.124Z,1.40
2023-04-04T14:35:54.720Z,1.70
2023-04-04T14:38:22.738Z,1.50
2023-04-04T14:40:50.908Z,1.10
2023-04-04T14:43:19.002Z,1.40
2023-04-04T14:45:47.626Z,1.50
2023-04-04T14:48:15.609Z,1.75
2023-04-04T14:50:43.863Z,1.52
2023-04-04T14:53:13.719Z,1.70
2023-04-04T14:55:42.056Z,1.58
2023-04-04T14:58:10.209Z,1.40
2023-04-04T15:00:38.448Z,1.60
2023-04-04T15:03:08.310Z,1.30
2023-04-04T15:05:36.679Z,1.25
2023-04-04T15:08:05.077Z,1.67
2023-04-04T15:10:34.950Z,1.38
2023-04-04T15:13:03.208Z,1.75
2023-04-04T15:15:31.597Z,1.80
2023-04-04T15:17:59.644Z,1.70
2023-04-04T15:20:27.951Z,1.85
2023-04-04T15:22:56.150Z,1.90
2023-04-04T15:25:24.402Z,1.42
2023-04-04T15:27:53.747Z,1.75
2023-04-04T15:30:23.636Z,1.67
2023-04-04T15:32:54.243Z,1.80
2023-04-04T15:35:22.860Z,1.88
2023-04-04T15:37:51.480Z,1.60
2023-04-04T15:40:20.694Z,2.00
2023-04-04T15:42:49.348Z,1.58
2023-04-04T15:45:18.984Z,1.60
2023-04-04T15:47:47.455Z,1.65
2023-04-04T15:50:16.011Z,1.83
2023-04-04T15:52:44.209Z,1.95
2023-04-04T15:55:13.324Z,1.88
2023-04-04T15:57:44.247Z,2.45
2023-04-04T16:00:14.351Z,1.50
2023-04-04T16:02:44.123Z,1.77
2023-04-04T16:05:12.360Z,1.80
2023-04-04T16:07:40.706Z,1.80
2023-04-04T16:10:10.835Z,1.80
2023-04-04T16:12:39.040Z,1.73
2023-04-04T16:15:08.890Z,2.10
2023-04-04T16:17:37.540Z,1.75
2023-04-04T16:20:08.276Z,2.03
2023-04-04T16:22:36.373Z,1.70
2023-04-04T16:25:04.540Z,2.00
2023-04-04T16:27:34.030Z,1.88
2023-04-04T16:30:02.493Z,2.03
2023-04-04T16:32:31.684Z,1.88
2023-04-04T16:34:59.809Z,2.63
2023-04-04T16:37:29.261Z,1.98
2023-04-04T16:40:00.182Z,1.70
2023-04-04T16:42:28.592Z,1.77
2023-04-04T16:44:56.822Z,2.40
2023-04-04T16:47:26.748Z,2.35
2023-04-04T16:49:56.303Z,2.42
2023-04-04T16:52:24.522Z,2.28
2023-04-04T16:54:54.336Z,2.00
2023-04-04T16:57:22.527Z,2.05
2023-04-04T16:59:51.018Z,2.13
2023-04-04T17:02:19.102Z,2.20
2023-04-04T17:04:47.208Z,2.10
2023-04-04T17:07:15.466Z,1.75
2023-04-04T17:09:43.549Z,2.17
2023-04-04T17:12:13.119Z,2.15
2023-04-04T17:14:41.928Z,1.83
2023-04-04T17:17:10.334Z,2.10
2023-04-04T17:19:38.785Z,2.20
2023-04-04T17:22:06.867Z,2.35
2023-04-04T17:24:36.005Z,2.03
2023-04-04T17:27:04.535Z,2.65
2023-04-04T17:29:34.098Z,3.10
2023-04-04T17:32:02.184Z,2.88
2023-04-04T17:34:30.364Z,2.30
2023-04-04T17:36:58.728Z,2.17
2023-04-04T17:39:27.013Z,1.85
2023-04-04T17:41:56.154Z,2.20
2023-04-04T17:44:24.320Z,2.22
2023-04-04T17:46:55.222Z,1.92
2023-04-04T17:49:23.762Z,2.10
2023-04-04T17:51:52.175Z,1.98
2023-04-04T17:54:20.765Z,1.80
2023-04-04T17:56:50.194Z,1.90
2023-04-04T17:59:18.943Z,1.50
2023-04-04T18:01:47.082Z,1.98
2023-04-04T18:04:16.935Z,2.10
2023-04-04T18:06:46.607Z,1.77
2023-04-04T18:09:14.679Z,1.60
2023-04-04T18:11:42.743Z,1.50
2023-04-04T18:14:11.283Z,1.38
2023-04-04T18:16:41.020Z,1.50
2023-04-04T18:19:09.995Z,1.70
2023-04-04T18:21:39.459Z,1.60
2023-04-04T18:24:11.028Z,1.70
2023-04-04T18:26:39.448Z,1.63
2023-04-04T18:29:08.286Z,1.80
2023-04-04T18:31:36.453Z,2.10
2023-04-04T18:34:04.551Z,2.13
2023-04-04T18:36:32.794Z,2.03
2023-04-04T18:39:02.148Z,1.92
2023-04-04T18:41:30.249Z,1.65
2023-04-04T18:43:58.299Z,1.73
2023-04-04T18:46:26.551Z,2.00
2023-04-04T18:48:54.609Z,1.70
2023-04-04T18:51:23.826Z,1.77
2023-04-04T18:53:52.091Z,2.28
2023-04-04T18:56:22.545Z,2.40
2023-04-04T18:58:50.837Z,2.03
2023-04-04T19:01:19.086Z,2.15
2023-04-04T19:03:48.063Z,2.10
2023-04-04T19:06:16.664Z,2.38
2023-04-04T19:08:45.487Z,2.50
2023-04-04T19:11:15.593Z,2.38
2023-04-04T19:13:45.002Z,2.30
2023-04-04T19:16:13.084Z,2.55
2023-04-04T19:18:41.114Z,2.40
2023-04-04T19:21:10.301Z,1.73
2023-04-04T19:23:39.487Z,1.60
2023-04-04T19:26:08.074Z,1.67
2023-04-04T19:28:36.361Z,2.45
2023-04-04T19:31:10.785Z,2.80
2023-04-04T19:33:39.713Z,2.28
2023-04-04T19:36:11.003Z,2.70
2023-04-04T19:38:42.437Z,2.80
2023-04-04T19:41:14.303Z,2.83
2023-04-04T19:43:45.128Z,2.63
2023-04-04T19:46:16.442Z,2.47
2023-04-04T19:48:48.853Z,2.60
2023-04-04T19:51:40.937Z,2.35
2023-04-04T19:54:14.803Z,2.40
2023-04-04T19:56:44.415Z,2.38
2023-04-04T19:59:52.128Z,2.90
2023-04-04T20:02:46.485Z,3.35
2023-04-04T20:05:52.837Z,3.20
2023-04-04T20:08:21.581Z,2.95
2023-04-04T20:10:50.575Z,3.08
2023-04-04T20:13:20.825Z,2.95
2023-04-04T20:16:01.613Z,2.95
2023-04-04T20:18:33.715Z,3.35
2023-04-04T20:21:06.035Z,3.28
2023-04-04T20:23:42.519Z,3.10
2023-04-04T20:26:14.285Z,3.47
2023-04-04T20:28:46.436Z,3.28
2023-04-04T20:31:18.057Z,3.25
2023-04-04T20:33:47.760Z,3.45
2023-04-04T20:36:32.779Z,3.30
2023-04-04T20:39:01.109Z,3.42
2023-04-04T20:41:29.371Z,3.17
2023-04-04T20:43:59.921Z,3.40
2023-04-04T20:46:28.794Z,3.97
2023-04-04T20:48:58.637Z,4.07
2023-04-04T20:51:29.487Z,3.42
2023-04-04T20:53:59.760Z,3.60
2023-04-04T20:56:55.312Z,3.35
2023-04-04T20:59:38.340Z,3.45
2023-04-04T21:02:16.896Z,3.30
2023-04-04T21:04:49.512Z,3.10
2023-04-04T21:07:48.091Z,3.30
2023-04-04T21:10:24.745Z,3.47
2023-04-04T21:12:53.333Z,3.55
2023-04-04T21:15:26.311Z,3.50
2023-04-04T21:17:55.468Z,3.90
2023-04-04T21:21:02.824Z,3.08
2023-04-04T21:23:34.298Z,3.00
2023-04-04T21:26:03.718Z,3.63
2023-04-04T21:28:33.958Z,3.70
2023-04-04T21:31:03.342Z,3.70
2023-04-04T21:33:31.389Z,3.78
2023-04-04T21:35:59.539Z,2.80
2023-04-04T21:38:30.820Z,4.22
2023-04-04T21:41:00.791Z,3.63
2023-04-04T21:43:29.497Z,3.40
2023-04-04T21:45:58.112Z,3.25
2023-04-04T21:48:26.175Z,2.72
2023-04-04T21:50:54.784Z,3.40
2023-04-04T21:53:23.467Z,3.08
2023-04-04T21:55:51.555Z,3.08
2023-04-04T21:58:20.980Z,3.50
2023-04-04T22:00:49.308Z,3.67
2023-04-04T22:03:17.601Z,4.30
2023-04-04T22:05:45.884Z,3.72
2023-04-04T22:08:14.124Z,3.70
2023-04-04T22:10:46.339Z,3.53
2023-04-04T22:13:17.393Z,3.60
2023-04-04T22:15:47.733Z,3.20
2023-04-04T22:18:16.201Z,3.53
2023-04-04T22:20:45.482Z,3.10
2023-04-04T22:23:17.709Z,3.45
2023-04-04T22:25:45.975Z,3.72
2023-04-04T22:28:18.299Z,4.47
2023-04-04T22:30:47.745Z,4.10
2023-04-04T22:33:15.739Z,4.55
2023-04-04T22:35:45.532Z,7.03
2023-04-04T22:38:14.618Z,5.20
2023-04-04T22:40:42.848Z,5.65
2023-04-04T22:43:11.091Z,4.35
2023-04-04T22:45:39.393Z,4.88
2023-04-04T22:48:09.310Z,4.43
2023-04-04T22:50:37.976Z,4.50
2023-04-04T22:53:06.211Z,4.63
2023-04-04T22:55:34.517Z,4.45
2023-04-04T22:58:02.800Z,4.55
2023-04-04T23:00:31.278Z,5.50
2023-04-04T23:03:00.844Z,6.28
2023-04-04T23:05:31.051Z,6.60
2023-04-04T23:08:03.841Z,8.90
2023-04-04T23:10:32.369Z,9.07
2023-04-04T23:13:00.489Z,9.27
2023-04-04T23:15:28.840Z,7.95
2023-04-04T23:17:57.196Z,7.32
2023-04-04T23:20:25.266Z,7.55
2023-04-04T23:22:54.945Z,6.63
2023-04-04T23:25:22.967Z,6.78
2023-04-04T23:27:51.441Z,6.88
2023-04-04T23:30:20.067Z,6.60
2023-04-04T23:32:48.093Z,6.63
2023-04-04T23:35:16.536Z,6.53
2023-04-04T23:37:44.613Z,6.47
2023-04-04T23:40:14.747Z,6.75
2023-04-04T23:42:43.533Z,6.13
2023-04-04T23:45:12.814Z,6.03
2023-04-04T23:47:41.127Z,6.15
2023-04-04T23:50:09.830Z,5.68
2023-04-04T23:52:39.507Z,5.70
2023-04-04T23:55:08.409Z,5.40
2023-04-04T23:57:37.989Z,5.07
